Time,TemperatureF,DewpointF,PressureIn,WindDirection,WindDirectionDegrees,WindSpeedMPH,WindSpeedGustMPH,Humidity,HourlyPrecipIn,Conditions,Clouds,dailyrainin,SoftwareType,DateUTC
2013-03-31 00:03:00,44.6,39.1,29.92,NW,318,0.0,0.0,81,0.00,OVC,OVC,0.00,WeatherDisplay:10.37,2013-03-31 05:03:00,
2013-03-31 00:08:00,44.6,39.1,29.92,NW,318,0.0,0.0,81,0.00,OVC,OVC,0.00,WeatherDisplay:10.37,2013-03-31 05:08:00,
2013-03-31 00:14:00,44.5,39.0,29.92,NW,318,0.0,0.0,81,0.00,OVC,OVC,0.00,WeatherDisplay:10.37,2013-03-31 05:14:00,
2013-03-31 00:19:00,44.3,38.8,29.92,NW,318,0.0,0.0,81,0.00,OVC,OVC,0.00,WeatherDisplay:10.37,2013-03-31 05:19:00,
2013-03-31 00:24:00,44.1,38.6,29.92,NW,318,0.0,0.0,81,0.00,OVC,OVC,0.00,WeatherDisplay:10.37,2013-03-31 05:24:00,
2013-03-31 00:29:00,44.1,39.0,29.92,NW,318,0.0,0.0,82,0.00,OVC,OVC,0.00,WeatherDisplay:10.37,2013-03-31 05:29:00,
2013-03-31 00:34:00,44.0,38.5,29.92,NW,318,0.0,0.0,81,0.00,OVC,OVC,0.00,WeatherDisplay:10.37,2013-03-31 05:34:00,
2013-03-31 00:40:00,44.2,39.1,29.92,NW,318,0.0,0.0,82,0.00,OVC,OVC,0.00,WeatherDisplay:10.37,2013-03-31 05:40:00,
2013-03-31 00:45:00,44.3,39.2,29.92,NW,318,0.0,0.0,82,0.00,OVC,OVC,0.00,WeatherDisplay:10.37,2013-03-31 05:45:00,
2013-03-31 00:50:00,44.1,38.6,29.92,NW,318,0.0,0.0,81,0.00,OVC,OVC,0.00,WeatherDisplay:10.37,2013-03-31 05:50:00,
2013-03-31 00:55:00,43.8,38.3,29.92,NW,318,0.0,0.0,81,0.00,OVC,OVC,0.00,WeatherDisplay:10.37,2013-03-31 05:55:00,
2013-03-31 01:00:00,43.5,38.1,29.92,NW,318,0.0,0.0,81,0.00,OVC,OVC,0.00,WeatherDisplay:10.37,2013-03-31 06:00:00,
2013-03-31 01:05:00,43.2,37.8,29.92,NW,318,0.0,0.0,81,0.00,OVC,OVC,0.00,WeatherDisplay:10.37,2013-03-31 06:05:00,
2013-03-31 01:11:00,42.9,37.5,29.92,NW,318,0.0,0.0,81,0.00,OVC,OVC,0.00,WeatherDisplay:10.37,2013-03-31 06:11:00,
2013-03-31 01:16:00,42.6,37.2,29.92,NW,318,0.0,0.0,81,0.00,OVC,OVC,0.00,WeatherDisplay:10.37,2013-03-31 06:16:00,
2013-03-31 01:21:00,42.3,36.9,29.92,NW,318,0.0,0.0,81,0.00,OVC,OVC,0.00,WeatherDisplay:10.37,2013-03-31 06:21:00,
2013-03-31 01:26:00,42.2,36.8,29.92,NW,318,0.0,0.0,81,0.00,OVC,OVC,0.00,WeatherDisplay:10.37,2013-03-31 06:26:00,
2013-03-31 01:31:00,42.1,36.7,29.92,NW,318,0.0,0.0,81,0.00,OVC,OVC,0.00,WeatherDisplay:10.37,2013-03-31 06:31:00,
2013-03-31 01:36:00,42.0,36.9,29.92,NW,318,0.0,0.0,82,0.00,OVC,OVC,0.00,WeatherDisplay:10.37,2013-03-31 06:36:00,
2013-03-31 01:42:00,42.0,36.9,29.92,NW,318,0.0,0.0,82,0.00,OVC,OVC,0.00,WeatherDisplay:10.37,2013-03-31 06:42:00,
2013-03-31 01:47:00,42.0,36.9,29.92,NW,318,0.0,0.0,82,0.00,OVC,OVC,0.00,WeatherDisplay:10.37,2013-03-31 06:47:00,
2013-03-31 01:52:00,41.8,36.7,29.93,NW,318,0.0,0.0,82,0.00,OVC,OVC,0.00,WeatherDisplay:10.37,2013-03-31 06:52:00,
2013-03-31 01:57:00,41.7,36.6,29.92,NW,318,0.0,0.0,82,0.00,OVC,OVC,0.00,WeatherDisplay:10.37,2013-03-31 06:57:00,
2013-03-31 02:02:00,41.6,36.5,29.92,NW,318,0.0,0.0,82,0.00,OVC,OVC,0.00,WeatherDisplay:10.37,2013-03-31 07:02:00,
2013-03-31 02:07:00,41.7,36.6,29.92,NW,318,0.0,0.0,82,0.00,OVC,OVC,0.00,WeatherDisplay:10.37,2013-03-31 07:07:00,
2013-03-31 02:13:00,41.8,36.7,29.92,NW,317,0.0,0.0,82,0.00,OVC,OVC,0.00,WeatherDisplay:10.37,2013-03-31 07:13:00,
2013-03-31 02:18:00,41.8,36.7,29.92,NW,318,0.0,0.0,82,0.00,OVC,OVC,0.00,WeatherDisplay:10.37,2013-03-31 07:18:00,
2013-03-31 02:23:00,41.8,37.0,29.92,NW,318,0.0,0.0,83,0.00,OVC,OVC,0.00,WeatherDisplay:10.37,2013-03-31 07:23:00,
2013-03-31 02:28:00,41.6,36.8,29.92,NW,318,0.0,0.0,83,0.00,OVC,OVC,0.00,WeatherDisplay:10.37,2013-03-31 07:28:00,
2013-03-31 02:33:00,41.7,36.9,29.92,NW,318,0.0,0.0,83,0.00,OVC,OVC,0.00,WeatherDisplay:10.37,2013-03-31 07:33:00,
2013-03-31 02:38:00,41.7,36.9,29.92,NW,318,0.0,0.0,83,0.00,OVC,OVC,0.00,WeatherDisplay:10.37,2013-03-31 07:38:00,
2013-03-31 02:44:00,41.5,36.7,29.92,NW,318,0.0,0.0,83,0.00,OVC,OVC,0.00,WeatherDisplay:10.37,2013-03-31 07:44:00,
2013-03-31 02:49:00,41.4,36.6,29.92,NW,318,0.0,0.0,83,0.00,OVC,OVC,0.00,WeatherDisplay:10.37,2013-03-31 07:49:00,
2013-03-31 02:54:00,41.3,36.5,29.92,NW,318,0.0,0.0,83,0.00,OVC,OVC,0.00,WeatherDisplay:10.37,2013-03-31 07:54:00,
2013-03-31 02:59:00,41.4,36.6,29.92,NW,318,0.0,0.0,83,0.00,OVC,OVC,0.00,WeatherDisplay:10.37,2013-03-31 07:59:00,
2013-03-31 03:04:00,41.5,36.7,29.92,NW,318,0.0,0.0,83,0.00,OVC,OVC,0.00,WeatherDisplay:10.37,2013-03-31 08:04:00,
2013-03-31 03:09:00,41.4,36.6,29.92,NW,318,0.0,0.0,83,0.00,OVC,OVC,0.00,WeatherDisplay:10.37,2013-03-31 08:09:00,
2013-03-31 03:14:00,41.3,36.5,29.92,NW,318,0.0,0.0,83,0.00,OVC,OVC,0.00,WeatherDisplay:10.37,2013-03-31 08:14:00,
2013-03-31 03:19:00,41.4,36.6,29.92,NW,318,0.0,0.0,83,0.00,OVC,OVC,0.00,WeatherDisplay:10.37,2013-03-31 08:19:00,
2013-03-31 03:24:00,41.6,36.8,29.92,NW,318,1.2,1.2,83,0.00,OVC,OVC,0.00,WeatherDisplay:10.37,2013-03-31 08:24:00,
2013-03-31 03:30:00,41.6,36.8,29.91,NW,318,0.0,0.0,83,0.00,OVC,OVC,0.00,WeatherDisplay:10.37,2013-03-31 08:30:00,
2013-03-31 03:35:00,41.3,36.5,29.92,NW,318,0.0,0.0,83,0.00,OVC,OVC,0.00,WeatherDisplay:10.37,2013-03-31 08:35:00,
2013-03-31 03:40:00,40.9,36.1,29.91,NW,318,0.0,0.0,83,0.00,OVC,OVC,0.00,WeatherDisplay:10.37,2013-03-31 08:40:00,
2013-03-31 03:45:00,40.6,35.8,29.91,NW,318,0.0,0.0,83,0.00,OVC,OVC,0.00,WeatherDisplay:10.37,2013-03-31 08:45:00,
2013-03-31 03:50:00,40.3,35.5,29.91,NW,318,0.0,0.0,83,0.00,OVC,OVC,0.00,WeatherDisplay:10.37,2013-03-31 08:50:00,
2013-03-31 03:55:00,40.3,35.5,29.92,NW,317,0.0,0.7,83,0.00,OVC,OVC,0.00,WeatherDisplay:10.37,2013-03-31 08:55:00,
2013-03-31 04:01:00,40.2,35.4,29.92,NW,318,0.0,0.0,83,0.00,OVC,OVC,0.00,WeatherDisplay:10.37,2013-03-31 09:01:00,
2013-03-31 04:06:00,40.1,35.4,29.92,NW,318,2.3,2.3,83,0.00,OVC,OVC,0.00,WeatherDisplay:10.37,2013-03-31 09:06:00,
2013-03-31 04:11:00,40.0,35.3,29.92,NW,318,0.0,0.0,83,0.00,OVC,OVC,0.00,WeatherDisplay:10.37,2013-03-31 09:11:00,
2013-03-31 04:16:00,39.8,35.1,29.92,NW,318,0.0,0.0,83,0.00,OVC,OVC,0.00,WeatherDisplay:10.37,2013-03-31 09:16:00,
2013-03-31 04:21:00,39.5,34.8,29.91,NW,318,0.0,0.0,83,0.00,OVC,OVC,0.00,WeatherDisplay:10.37,2013-03-31 09:21:00,
2013-03-31 04:26:00,39.2,34.5,29.91,NW,318,0.0,0.0,83,0.00,OVC,OVC,0.00,WeatherDisplay:10.37,2013-03-31 09:26:00,
2013-03-31 04:32:00,38.9,34.2,29.92,NW,318,0.0,0.0,83,0.00,OVC,OVC,0.00,WeatherDisplay:10.37,2013-03-31 09:32:00,
2013-03-31 04:37:00,39.0,34.3,29.91,NW,318,0.0,0.0,83,0.00,OVC,OVC,0.00,WeatherDisplay:10.37,2013-03-31 09:37:00,
2013-03-31 04:42:00,38.8,34.1,29.91,NW,318,0.0,0.0,83,0.00,OVC,OVC,0.00,WeatherDisplay:10.37,2013-03-31 09:42:00,
2013-03-31 04:47:00,38.5,33.8,29.92,NW,318,0.0,0.0,83,0.00,OVC,OVC,0.00,WeatherDisplay:10.37,2013-03-31 09:47:00,
2013-03-31 04:52:00,38.8,34.1,29.92,NW,312,2.3,2.3,83,0.00,OVC,OVC,0.00,WeatherDisplay:10.37,2013-03-31 09:52:00,
2013-03-31 04:58:00,39.2,34.8,29.92,WNW,290,3.5,3.5,84,0.00,OVC,OVC,0.00,WeatherDisplay:10.37,2013-03-31 09:58:00,
2013-03-31 05:03:00,39.3,34.9,29.92,WNW,288,3.5,3.5,84,0.00,OVC,OVC,0.00,WeatherDisplay:10.37,2013-03-31 10:03:00,
2013-03-31 05:08:00,39.3,34.9,29.92,WNW,288,3.5,3.5,84,0.00,OVC,OVC,0.00,WeatherDisplay:10.37,2013-03-31 10:08:00,
2013-03-31 05:13:00,39.3,34.9,29.92,WNW,296,4.6,4.6,84,0.00,OVC,OVC,0.00,WeatherDisplay:10.37,2013-03-31 10:13:00,
2013-03-31 05:18:00,39.1,34.7,29.92,WNW,295,2.3,2.3,84,0.00,OVC,OVC,0.00,WeatherDisplay:10.37,2013-03-31 10:18:00,
2013-03-31 05:24:00,38.9,34.5,29.92,WNW,295,2.0,2.0,84,0.00,OVC,OVC,0.00,WeatherDisplay:10.37,2013-03-31 10:24:00,
2013-03-31 05:29:00,38.8,34.1,29.92,WNW,295,1.2,0.0,83,0.00,OVC,OVC,0.00,WeatherDisplay:10.37,2013-03-31 10:29:00,
2013-03-31 05:34:00,38.6,34.2,29.92,WNW,295,3.5,3.5,84,0.00,OVC,OVC,0.00,WeatherDisplay:10.37,2013-03-31 10:34:00,
2013-03-31 05:39:00,38.5,34.1,29.92,WNW,293,3.5,3.5,84,0.00,OVC,OVC,0.00,WeatherDisplay:10.37,2013-03-31 10:39:00,
2013-03-31 05:45:00,38.4,34.0,29.92,West,281,3.5,3.5,84,0.00,OVC,OVC,0.00,WeatherDisplay:10.37,2013-03-31 10:45:00,
2013-03-31 05:50:00,38.4,34.0,29.93,WNW,286,3.5,3.5,84,0.00,OVC,OVC,0.00,WeatherDisplay:10.37,2013-03-31 10:50:00,
2013-03-31 05:55:00,38.3,33.9,29.93,North,350,2.3,2.3,84,0.00,OVC,OVC,0.00,WeatherDisplay:10.37,2013-03-31 10:55:00,
2013-03-31 06:00:00,38.3,33.9,29.93,WNW,286,4.6,4.6,84,0.00,OVC,OVC,0.00,WeatherDisplay:10.37,2013-03-31 11:00:00,
2013-03-31 06:06:00,38.2,33.8,29.93,WNW,288,4.6,4.6,84,0.00,OVC,OVC,0.00,WeatherDisplay:10.37,2013-03-31 11:06:00,
2013-03-31 06:11:00,38.0,33.6,29.93,WNW,290,3.0,3.0,84,0.00,OVC,OVC,0.00,WeatherDisplay:10.37,2013-03-31 11:11:00,
2013-03-31 06:16:00,38.0,33.6,29.93,NW,306,3.5,3.5,84,0.00,OVC,OVC,0.00,WeatherDisplay:10.37,2013-03-31 11:16:00,
2013-03-31 06:22:00,37.9,33.5,29.93,WNW,296,5.0,5.0,84,0.00,OVC,OVC,0.00,WeatherDisplay:10.37,2013-03-31 11:22:00,
2013-03-31 06:27:00,37.7,33.3,29.93,WNW,293,3.5,3.5,84,0.00,OVC,OVC,0.00,WeatherDisplay:10.37,2013-03-31 11:27:00,
2013-03-31 06:32:00,37.6,33.2,29.93,NW,304,2.3,2.3,84,0.00,OVC,OVC,0.00,WeatherDisplay:10.37,2013-03-31 11:32:00,
2013-03-31 06:37:00,37.5,33.1,29.94,NW,317,3.5,3.5,84,0.00,OVC,OVC,0.00,WeatherDisplay:10.37,2013-03-31 11:37:00,
2013-03-31 06:42:00,37.5,33.1,29.94,NW,315,3.5,3.5,84,0.00,OVC,OVC,0.00,WeatherDisplay:10.37,2013-03-31 11:42:00,
2013-03-31 06:47:00,37.3,32.9,29.94,NW,317,2.3,2.3,84,0.00,OVC,OVC,0.00,WeatherDisplay:10.37,2013-03-31 11:47:00,
2013-03-31 06:53:00,37.2,32.8,29.93,NW,317,3.0,3.0,84,0.00,OVC,OVC,0.00,WeatherDisplay:10.37,2013-03-31 11:53:00,
2013-03-31 06:58:00,37.1,32.7,29.94,NW,317,1.2,1.2,84,0.00,OVC,OVC,0.00,WeatherDisplay:10.37,2013-03-31 11:58:00,
2013-03-31 07:03:00,37.0,32.6,29.93,NW,317,0.0,0.0,84,0.00,OVC,OVC,0.00,WeatherDisplay:10.37,2013-03-31 12:03:00,
2013-03-31 07:08:00,36.8,32.4,29.93,NW,317,0.0,0.0,84,0.00,OVC,OVC,0.00,WeatherDisplay:10.37,2013-03-31 12:08:00,
2013-03-31 07:13:00,36.6,32.2,29.93,NW,317,0.0,0.0,84,0.00,OVC,OVC,0.00,WeatherDisplay:10.37,2013-03-31 12:13:00,
2013-03-31 07:18:00,36.5,32.1,29.93,NW,317,0.0,0.0,84,0.00,OVC,OVC,0.00,WeatherDisplay:10.37,2013-03-31 12:18:00,
2013-03-31 07:23:00,36.4,32.0,29.93,NW,317,0.0,0.0,84,0.00,OVC,OVC,0.00,WeatherDisplay:10.37,2013-03-31 12:23:00,
2013-03-31 07:28:00,36.3,31.9,29.93,NW,317,0.0,0.0,84,0.00,OVC,OVC,0.00,WeatherDisplay:10.37,2013-03-31 12:28:00,
2013-03-31 07:34:00,36.2,31.8,29.94,NW,317,2.3,2.3,84,0.00,OVC,OVC,0.00,WeatherDisplay:10.37,2013-03-31 12:34:00,
2013-03-31 07:39:00,36.3,31.9,29.94,NW,315,2.3,2.3,84,0.00,OVC,OVC,0.00,WeatherDisplay:10.37,2013-03-31 12:39:00,
2013-03-31 07:44:00,36.5,32.1,29.94,WNW,285,3.5,3.5,84,0.00,OVC,OVC,0.00,WeatherDisplay:10.37,2013-03-31 12:44:00,
2013-03-31 07:49:00,36.8,32.4,29.94,West,273,5.8,5.8,84,0.00,OVC,OVC,0.00,WeatherDisplay:10.37,2013-03-31 12:49:00,
2013-03-31 07:54:00,36.9,32.5,29.94,West,273,2.3,2.3,84,0.00,OVC,OVC,0.00,WeatherDisplay:10.37,2013-03-31 12:54:00,
2013-03-31 08:00:00,37.2,33.1,29.95,WNW,290,3.5,3.5,85,0.00,OVC,OVC,0.00,WeatherDisplay:10.37,2013-03-31 13:00:00,
2013-03-31 08:05:00,37.4,33.3,29.95,WNW,288,5.8,5.8,85,0.00,OVC,OVC,0.00,WeatherDisplay:10.37,2013-03-31 13:05:00,
2013-03-31 08:10:00,37.6,33.5,29.94,West,280,6.9,6.9,85,0.00,OVC,OVC,0.00,WeatherDisplay:10.37,2013-03-31 13:10:00,
2013-03-31 08:15:00,37.7,33.6,29.94,WNW,289,6.9,6.9,85,0.00,OVC,OVC,0.00,WeatherDisplay:10.37,2013-03-31 13:15:00,
2013-03-31 08:20:00,37.8,33.7,29.94,West,265,3.5,3.5,85,0.00,OVC,OVC,0.00,WeatherDisplay:10.37,2013-03-31 13:20:00,
2013-03-31 08:25:00,37.8,33.7,29.94,WNW,294,5.8,5.8,85,0.00,OVC,OVC,0.00,WeatherDisplay:10.37,2013-03-31 13:25:00,
2013-03-31 08:30:00,37.8,33.4,29.94,WNW,291,6.9,6.9,84,0.00,OVC,OVC,0.00,WeatherDisplay:10.37,2013-03-31 13:30:00,
2013-03-31 08:35:00,37.9,33.5,29.94,WNW,290,6.0,6.0,84,0.00,OVC,OVC,0.00,WeatherDisplay:10.37,2013-03-31 13:35:00,
2013-03-31 08:41:00,38.0,33.6,29.94,WNW,282,6.0,6.0,84,0.00,OVC,OVC,0.00,WeatherDisplay:10.37,2013-03-31 13:41:00,
2013-03-31 08:46:00,38.0,33.6,29.94,West,272,5.8,5.8,84,0.00,OVC,OVC,0.00,WeatherDisplay:10.37,2013-03-31 13:46:00,
2013-03-31 08:51:00,37.4,33.0,29.95,WNW,300,9.2,9.2,84,0.00,OVC,OVC,0.00,WeatherDisplay:10.37,2013-03-31 13:51:00,
2013-03-31 08:58:00,37.4,33.0,29.95,WNW,298,9.2,9.2,84,0.00,OVC,OVC,0.00,WeatherDisplay:10.37,2013-03-31 13:58:00,
2013-03-31 09:03:00,37.4,33.0,29.95,NW,306,5.8,5.8,84,0.00,OVC,OVC,0.00,WeatherDisplay:10.37,2013-03-31 14:03:00,
2013-03-31 09:08:00,37.6,33.2,29.95,NW,313,8.1,8.1,84,0.00,OVC,OVC,0.00,WeatherDisplay:10.37,2013-03-31 14:08:00,
2013-03-31 09:14:00,38.1,33.7,29.94,NNW,336,3.5,3.5,84,0.00,OVC,OVC,0.00,WeatherDisplay:10.37,2013-03-31 14:14:00,
2013-03-31 09:19:00,38.6,33.9,29.95,West,273,6.9,6.9,83,0.00,OVC,OVC,0.00,WeatherDisplay:10.37,2013-03-31 14:19:00,
2013-03-31 09:24:00,39.2,34.5,29.95,NW,312,4.6,4.6,83,0.00,OVC,OVC,0.00,WeatherDisplay:10.37,2013-03-31 14:24:00,
2013-03-31 09:29:00,39.8,34.8,29.95,WNW,291,10.4,10.4,82,0.00,OVC,OVC,0.00,WeatherDisplay:10.37,2013-03-31 14:29:00,
2013-03-31 09:35:00,40.6,35.2,29.95,North,360,10.0,10.0,81,0.00,OVC,OVC,0.00,WeatherDisplay:10.37,2013-03-31 14:35:00,
2013-03-31 09:40:00,40.9,34.9,29.95,North,355,11.5,11.5,79,0.00,OVC,OVC,0.00,WeatherDisplay:10.37,2013-03-31 14:40:00,
2013-03-31 09:45:00,41.4,35.1,29.95,NW,309,3.5,3.5,78,0.00,OVC,OVC,0.00,WeatherDisplay:10.37,2013-03-31 14:45:00,
2013-03-31 09:50:00,42.0,35.0,29.95,NNW,334,16.1,16.1,76,0.00,OVC,OVC,0.00,WeatherDisplay:10.37,2013-03-31 14:50:00,
2013-03-31 09:55:00,42.4,35.0,29.95,NNW,345,4.6,5.9,75,0.00,OVC,OVC,0.00,WeatherDisplay:10.37,2013-03-31 14:55:00,
2013-03-31 10:00:00,43.3,35.2,29.95,NW,318,5.8,5.8,73,0.00,OVC,OVC,0.00,WeatherDisplay:10.37,2013-03-31 15:00:00,
2013-03-31 10:05:00,43.8,35.4,29.95,North,360,5.8,5.8,72,0.00,OVC,OVC,0.00,WeatherDisplay:10.37,2013-03-31 15:05:00,
2013-03-31 10:11:00,44.3,34.8,29.95,NW,317,12.0,12.0,69,0.00,OVC,OVC,0.00,WeatherDisplay:10.37,2013-03-31 15:11:00,
2013-03-31 10:17:00,44.7,34.4,29.94,NNW,342,11.5,11.5,67,0.00,OVC,OVC,0.00,WeatherDisplay:10.37,2013-03-31 15:17:00,
2013-03-31 10:22:00,45.0,34.3,29.95,NW,323,6.9,6.9,66,0.00,OVC,OVC,0.00,WeatherDisplay:10.37,2013-03-31 15:22:00,
2013-03-31 10:27:00,45.5,34.4,29.95,NW,325,11.5,11.5,65,0.00,OVC,OVC,0.00,WeatherDisplay:10.37,2013-03-31 15:27:00,
2013-03-31 10:33:00,45.8,34.3,29.95,NNW,341,9.2,9.2,64,0.00,OVC,OVC,0.00,WeatherDisplay:10.37,2013-03-31 15:33:00,
2013-03-31 10:38:00,46.7,35.2,29.95,WNW,286,9.2,9.2,64,0.00,OVC,OVC,0.00,WeatherDisplay:10.37,2013-03-31 15:38:00,
2013-03-31 10:43:00,46.9,34.6,29.94,WNW,288,9.2,9.2,62,0.00,OVC,OVC,0.00,WeatherDisplay:10.37,2013-03-31 15:43:00,
2013-03-31 10:49:00,47.4,34.6,29.94,NW,311,6.9,6.9,61,0.00,OVC,OVC,0.00,WeatherDisplay:10.37,2013-03-31 15:49:00,
2013-03-31 10:54:00,47.4,34.2,29.94,NNW,344,8.1,8.1,60,0.00,OVC,OVC,0.00,WeatherDisplay:10.37,2013-03-31 15:54:00,
2013-03-31 10:59:00,47.7,34.5,29.94,West,272,10.4,10.4,60,0.00,OVC,OVC,0.00,WeatherDisplay:10.37,2013-03-31 15:59:00,
2013-03-31 11:04:00,47.9,34.7,29.94,NW,307,16.1,16.1,60,0.00,OVC,OVC,0.00,WeatherDisplay:10.37,2013-03-31 16:04:00,
2013-03-31 11:09:00,48.5,34.8,29.94,West,274,13.8,13.8,59,0.00,OVC,OVC,0.00,WeatherDisplay:10.37,2013-03-31 16:09:00,
2013-03-31 11:14:00,48.8,34.7,29.94,WNW,299,11.5,11.5,58,0.00,OVC,OVC,0.00,WeatherDisplay:10.37,2013-03-31 16:14:00,
2013-03-31 11:19:00,48.9,34.3,29.94,NW,304,12.0,12.0,57,0.00,OVC,OVC,0.00,WeatherDisplay:10.37,2013-03-31 16:19:00,
2013-03-31 11:25:00,49.4,33.9,29.94,WNW,296,16.1,16.1,55,0.00,OVC,OVC,0.00,WeatherDisplay:10.37,2013-03-31 16:25:00,
2013-03-31 11:30:00,49.6,31.7,29.95,West,277,16.1,16.1,50,0.00,OVC,OVC,0.00,WeatherDisplay:10.37,2013-03-31 16:30:00,
2013-03-31 11:35:00,50.4,29.8,29.94,NW,309,5.8,5.8,45,0.00,OVC,OVC,0.00,WeatherDisplay:10.37,2013-03-31 16:35:00,
2013-03-31 11:41:00,50.7,28.4,29.94,WNW,295,11.5,11.5,42,0.00,OVC,OVC,0.00,WeatherDisplay:10.37,2013-03-31 16:41:00,
2013-03-31 11:46:00,51.0,27.5,29.94,WNW,301,9.2,9.2,40,0.00,OVC,OVC,0.00,WeatherDisplay:10.37,2013-03-31 16:46:00,
2013-03-31 11:51:00,51.1,24.4,29.94,NW,311,16.1,16.1,35,0.00,OVC,OVC,0.00,WeatherDisplay:10.37,2013-03-31 16:51:00,
2013-03-31 11:56:00,51.0,25.0,29.94,West,274,15.0,15.0,36,0.00,OVC,OVC,0.00,WeatherDisplay:10.37,2013-03-31 16:56:00,
2013-03-31 12:01:00,50.9,24.2,29.94,West,274,16.1,16.1,35,0.00,OVC,OVC,0.00,WeatherDisplay:10.37,2013-03-31 17:01:00,
2013-03-31 12:07:00,51.4,23.9,29.94,WNW,285,11.5,11.5,34,0.00,OVC,OVC,0.00,WeatherDisplay:10.37,2013-03-31 17:07:00,
2013-03-31 12:12:00,51.9,23.7,29.94,NW,314,16.1,16.1,33,0.00,OVC,OVC,0.00,WeatherDisplay:10.37,2013-03-31 17:12:00,
2013-03-31 12:17:00,51.9,21.4,29.94,NNW,337,19.6,19.6,30,0.00,OVC,OVC,0.00,WeatherDisplay:10.37,2013-03-31 17:17:00,
2013-03-31 12:22:00,51.6,21.9,29.94,West,267,18.4,18.4,31,0.00,OVC,OVC,0.00,WeatherDisplay:10.37,2013-03-31 17:22:00,
2013-03-31 12:27:00,51.3,24.5,29.95,NW,312,12.0,12.0,35,0.00,OVC,OVC,0.00,WeatherDisplay:10.37,2013-03-31 17:27:00,
2013-03-31 12:32:00,51.2,20.0,29.95,WNW,291,11.5,11.5,29,0.00,OVC,OVC,0.00,WeatherDisplay:10.37,2013-03-31 17:32:00,
2013-03-31 12:38:00,50.9,18.1,29.95,WNW,292,19.6,19.6,27,0.00,OVC,OVC,0.00,WeatherDisplay:10.37,2013-03-31 17:38:00,
2013-03-31 12:43:00,51.3,18.4,29.95,WNW,302,15.0,15.0,27,0.00,OVC,OVC,0.00,WeatherDisplay:10.37,2013-03-31 17:43:00,
2013-03-31 12:48:00,51.3,20.9,29.95,NNW,341,11.5,11.5,30,0.00,OVC,OVC,0.00,WeatherDisplay:10.37,2013-03-31 17:48:00,
2013-03-31 12:53:00,51.8,19.7,29.95,WNW,296,16.1,16.1,28,0.00,OVC,OVC,0.00,WeatherDisplay:10.37,2013-03-31 17:53:00,
2013-03-31 12:59:00,51.4,19.3,29.96,WNW,283,18.4,18.4,28,0.00,OVC,OVC,0.00,WeatherDisplay:10.37,2013-03-31 17:59:00,
2013-03-31 13:04:00,51.0,20.6,29.96,West,278,15.0,15.0,30,0.00,OVC,OVC,0.00,WeatherDisplay:10.37,2013-03-31 18:04:00,
2013-03-31 13:09:00,51.0,20.6,29.97,WNW,290,20.7,20.7,30,0.00,OVC,OVC,0.00,WeatherDisplay:10.37,2013-03-31 18:09:00,
2013-03-31 13:14:00,51.0,19.8,29.96,WNW,292,15.0,15.0,29,0.00,OVC,OVC,0.00,WeatherDisplay:10.37,2013-03-31 18:14:00,
2013-03-31 13:19:00,51.7,21.2,29.96,WNW,283,17.3,17.3,30,0.00,OVC,OVC,0.00,WeatherDisplay:10.37,2013-03-31 18:19:00,
2013-03-31 13:25:00,51.4,22.5,29.96,NW,307,15.0,15.0,32,0.00,OVC,OVC,0.00,WeatherDisplay:10.37,2013-03-31 18:25:00,
2013-03-31 13:30:00,51.7,22.8,29.97,NW,319,11.5,11.5,32,0.00,OVC,OVC,0.00,WeatherDisplay:10.37,2013-03-31 18:30:00,
2013-03-31 13:35:00,51.1,25.0,29.97,WNW,295,10.4,10.4,36,0.00,OVC,OVC,0.00,WeatherDisplay:10.37,2013-03-31 18:35:00,
2013-03-31 13:40:00,50.6,25.3,29.97,WNW,295,15.0,15.0,37,0.00,OVC,OVC,0.00,WeatherDisplay:10.37,2013-03-31 18:40:00,
2013-03-31 13:45:00,50.7,26.6,29.97,West,274,12.7,12.7,39,0.00,OVC,OVC,0.00,WeatherDisplay:10.37,2013-03-31 18:45:00,
2013-03-31 13:50:00,50.4,26.3,29.97,NNW,339,17.3,17.3,39,0.00,OVC,OVC,0.00,WeatherDisplay:10.37,2013-03-31 18:50:00,
2013-03-31 13:55:00,50.1,26.1,29.97,NW,326,15.0,15.0,39,0.00,OVC,OVC,0.00,WeatherDisplay:10.37,2013-03-31 18:55:00,
2013-03-31 14:00:00,50.1,26.7,29.97,WNW,286,17.3,17.3,40,0.00,OVC,OVC,0.00,WeatherDisplay:10.37,2013-03-31 19:00:00,
2013-03-31 14:06:00,50.7,28.4,29.97,North,350,11.5,11.5,42,0.00,OVC,OVC,0.00,WeatherDisplay:10.37,2013-03-31 19:06:00,
2013-03-31 14:11:00,50.6,27.7,29.97,NNW,331,13.8,13.8,41,0.00,OVC,OVC,0.00,WeatherDisplay:10.37,2013-03-31 19:11:00,
2013-03-31 14:17:00,49.8,26.4,29.97,WNW,302,17.3,17.3,40,0.00,OVC,OVC,0.00,WeatherDisplay:10.37,2013-03-31 19:17:00,
2013-03-31 14:22:00,49.7,25.7,29.97,WNW,298,10.4,10.4,39,0.00,OVC,OVC,0.00,WeatherDisplay:10.37,2013-03-31 19:22:00,
2013-03-31 14:27:00,49.5,26.1,29.97,NNW,340,16.1,16.1,40,0.00,OVC,OVC,0.00,WeatherDisplay:10.37,2013-03-31 19:27:00,
2013-03-31 14:32:00,49.7,25.7,29.97,NNW,344,11.0,11.0,39,0.00,OVC,OVC,0.00,WeatherDisplay:10.37,2013-03-31 19:32:00,
2013-03-31 14:38:00,50.0,26.6,29.97,North,5,12.7,12.7,40,0.00,OVC,OVC,0.00,WeatherDisplay:10.37,2013-03-31 19:38:00,
2013-03-31 14:43:00,49.6,26.8,29.97,NW,323,15.0,15.0,41,0.00,OVC,OVC,0.00,WeatherDisplay:10.37,2013-03-31 19:43:00,
2013-03-31 14:48:00,50.0,27.2,29.97,North,355,6.0,6.0,41,0.00,OVC,OVC,0.00,WeatherDisplay:10.37,2013-03-31 19:48:00,
2013-03-31 14:53:00,50.0,27.2,29.98,WNW,299,9.2,9.2,41,0.00,OVC,OVC,0.00,WeatherDisplay:10.37,2013-03-31 19:53:00,
2013-03-31 14:58:00,49.8,26.4,29.98,WNW,303,16.1,16.1,40,0.00,OVC,OVC,0.00,WeatherDisplay:10.37,2013-03-31 19:58:00,
2013-03-31 15:04:00,49.6,27.4,29.98,West,279,13.8,13.8,42,0.00,OVC,OVC,0.00,WeatherDisplay:10.37,2013-03-31 20:04:00,
2013-03-31 15:09:00,49.1,28.1,29.98,North,349,11.0,11.0,44,0.00,OVC,OVC,0.00,WeatherDisplay:10.37,2013-03-31 20:09:00,
2013-03-31 15:14:00,49.0,27.5,29.98,NW,304,13.8,13.8,43,0.00,OVC,OVC,0.00,WeatherDisplay:10.37,2013-03-31 20:14:00,
2013-03-31 15:20:00,48.7,27.2,29.98,WNW,287,15.0,15.0,43,0.00,OVC,OVC,0.00,WeatherDisplay:10.37,2013-03-31 20:20:00,
2013-03-31 15:25:00,49.4,27.2,29.98,NW,304,13.8,13.8,42,0.00,OVC,OVC,0.00,WeatherDisplay:10.37,2013-03-31 20:25:00,
2013-03-31 15:30:00,49.6,26.2,29.98,NNW,348,10.4,10.4,40,0.00,OVC,OVC,0.00,WeatherDisplay:10.37,2013-03-31 20:30:00,
2013-03-31 15:35:00,49.0,26.9,29.98,NNW,332,17.3,17.3,42,0.00,OVC,OVC,0.00,WeatherDisplay:10.37,2013-03-31 20:35:00,
2013-03-31 15:40:00,48.8,27.8,29.98,North,355,11.5,11.5,44,0.00,OVC,OVC,0.00,WeatherDisplay:10.37,2013-03-31 20:40:00,
2013-03-31 15:45:00,49.2,27.1,29.98,NNW,336,13.8,13.8,42,0.00,OVC,OVC,0.00,WeatherDisplay:10.37,2013-03-31 20:45:00,
2013-03-31 15:50:00,49.3,27.7,29.98,WNW,300,5.8,5.8,43,0.00,OVC,OVC,0.00,WeatherDisplay:10.37,2013-03-31 20:50:00,
2013-03-31 15:56:00,48.7,27.2,29.98,NW,321,11.5,11.5,43,0.00,OVC,OVC,0.00,WeatherDisplay:10.37,2013-03-31 20:56:00,
2013-03-31 16:01:00,48.8,27.3,29.98,NW,315,9.2,9.2,43,0.00,OVC,OVC,0.00,WeatherDisplay:10.37,2013-03-31 21:01:00,
2013-03-31 16:06:00,48.7,26.6,29.98,WNW,302,17.3,17.3,42,0.00,OVC,OVC,0.00,WeatherDisplay:10.37,2013-03-31 21:06:00,
2013-03-31 16:11:00,48.8,26.1,29.98,WNW,302,13.0,13.0,41,0.00,OVC,OVC,0.00,WeatherDisplay:10.37,2013-03-31 21:11:00,
2013-03-31 16:17:00,48.4,26.9,29.99,NW,323,11.5,11.5,43,0.00,OVC,OVC,0.00,WeatherDisplay:10.37,2013-03-31 21:17:00,
2013-03-31 16:22:00,48.3,26.8,29.99,NNW,330,11.5,11.5,43,0.00,OVC,OVC,0.00,WeatherDisplay:10.37,2013-03-31 21:22:00,
2013-03-31 16:27:00,48.1,26.6,29.99,WNW,298,12.7,12.7,43,0.00,OVC,OVC,0.00,WeatherDisplay:10.37,2013-03-31 21:27:00,
2013-03-31 16:32:00,48.3,26.2,29.99,NW,319,9.0,9.0,42,0.00,OVC,OVC,0.00,WeatherDisplay:10.37,2013-03-31 21:32:00,
2013-03-31 16:38:00,48.3,26.2,29.99,WNW,284,11.5,11.5,42,0.00,OVC,OVC,0.00,WeatherDisplay:10.37,2013-03-31 21:38:00,
2013-03-31 16:43:00,48.2,25.6,29.99,NNW,342,12.7,12.7,41,0.00,OVC,OVC,0.00,WeatherDisplay:10.37,2013-03-31 21:43:00,
2013-03-31 16:48:00,48.1,24.9,30.00,WNW,299,16.0,16.0,40,0.00,OVC,OVC,0.00,WeatherDisplay:10.37,2013-03-31 21:48:00,
2013-03-31 16:53:00,47.4,24.3,29.99,WNW,291,3.5,3.5,40,0.00,OVC,OVC,0.00,WeatherDisplay:10.37,2013-03-31 21:53:00,
2013-03-31 16:58:00,47.3,25.3,30.00,NW,321,10.4,10.4,42,0.00,OVC,OVC,0.00,WeatherDisplay:10.37,2013-03-31 21:58:00,
2013-03-31 17:03:00,46.9,25.5,29.99,NNW,338,12.7,12.7,43,0.00,OVC,OVC,0.00,WeatherDisplay:10.37,2013-03-31 22:03:00,
2013-03-31 17:08:00,46.9,25.5,29.99,NNW,334,10.4,10.4,43,0.00,OVC,OVC,0.00,WeatherDisplay:10.37,2013-03-31 22:08:00,
2013-03-31 17:14:00,47.0,26.7,30.00,NNW,335,6.9,6.9,45,0.00,OVC,OVC,0.00,WeatherDisplay:10.37,2013-03-31 22:14:00,
2013-03-31 17:19:00,46.8,25.5,29.99,WNW,294,13.8,13.8,43,0.00,OVC,OVC,0.00,WeatherDisplay:10.37,2013-03-31 22:19:00,
2013-03-31 17:24:00,46.7,27.0,29.99,North,5,6.9,6.9,46,0.00,OVC,OVC,0.00,WeatherDisplay:10.37,2013-03-31 22:24:00,
2013-03-31 17:29:00,47.1,27.4,29.99,North,351,11.5,11.5,46,0.00,OVC,OVC,0.00,WeatherDisplay:10.37,2013-03-31 22:29:00,
2013-03-31 17:34:00,46.3,27.2,30.00,NNW,340,12.7,12.7,47,0.00,OVC,OVC,0.00,WeatherDisplay:10.37,2013-03-31 22:34:00,
2013-03-31 17:39:00,46.1,27.0,29.99,NNE,15,5.8,5.8,47,0.00,OVC,OVC,0.00,WeatherDisplay:10.37,2013-03-31 22:39:00,
2013-03-31 17:45:00,46.2,27.1,30.00,WNW,298,7.0,7.0,47,0.00,OVC,OVC,0.00,WeatherDisplay:10.37,2013-03-31 22:45:00,
2013-03-31 17:50:00,46.0,26.9,30.00,NNW,329,4.6,4.6,47,0.00,OVC,OVC,0.00,WeatherDisplay:10.37,2013-03-31 22:50:00,
2013-03-31 17:55:00,45.8,26.2,30.00,WNW,296,11.5,11.5,46,0.00,OVC,OVC,0.00,WeatherDisplay:10.37,2013-03-31 22:55:00,
2013-03-31 18:00:00,45.3,26.2,30.00,NW,304,8.1,8.1,47,0.00,OVC,OVC,0.00,WeatherDisplay:10.37,2013-03-31 23:00:00,
2013-03-31 18:05:00,45.3,26.2,30.00,WNW,289,5.8,5.8,47,0.00,OVC,OVC,0.00,WeatherDisplay:10.37,2013-03-31 23:05:00,
2013-03-31 18:10:00,45.1,26.1,30.01,NNW,332,9.2,9.2,47,0.00,OVC,OVC,0.00,WeatherDisplay:10.37,2013-03-31 23:10:00,
2013-03-31 18:16:00,45.0,26.5,30.01,NW,323,10.4,10.4,48,0.00,OVC,OVC,0.00,WeatherDisplay:10.37,2013-03-31 23:16:00,
2013-03-31 18:21:00,44.9,26.4,30.01,NNE,31,12.7,12.7,48,0.00,OVC,OVC,0.00,WeatherDisplay:10.37,2013-03-31 23:21:00,
2013-03-31 18:26:00,44.6,26.6,30.01,NNW,348,9.2,9.2,49,0.00,OVC,OVC,0.00,WeatherDisplay:10.37,2013-03-31 23:26:00,
2013-03-31 18:31:00,44.3,26.3,30.02,NNW,348,4.6,4.6,49,0.00,OVC,OVC,0.00,WeatherDisplay:10.37,2013-03-31 23:31:00,
2013-03-31 18:36:00,44.1,26.6,30.02,NNE,15,6.0,6.0,50,0.00,OVC,OVC,0.00,WeatherDisplay:10.37,2013-03-31 23:36:00,
2013-03-31 18:42:00,43.8,26.3,30.02,North,355,6.9,6.9,50,0.00,OVC,OVC,0.00,WeatherDisplay:10.37,2013-03-31 23:42:00,
2013-03-31 18:47:00,43.8,26.3,30.02,NNE,24,5.8,5.8,50,0.00,OVC,OVC,0.00,WeatherDisplay:10.37,2013-03-31 23:47:00,
2013-03-31 18:52:00,43.3,25.4,30.03,NW,322,12.7,12.7,49,0.00,OVC,OVC,0.00,WeatherDisplay:10.37,2013-03-31 23:52:00,
2013-03-31 18:57:00,42.9,25.5,30.03,NW,316,11.5,11.5,50,0.00,CLR,CLR,0.00,WeatherDisplay:10.37,2013-03-31 23:57:00,
2013-03-31 19:02:00,42.6,25.2,30.03,North,5,8.1,8.1,50,0.00,CLR,CLR,0.00,WeatherDisplay:10.37,2013-04-01 00:02:00,
2013-03-31 19:07:00,42.5,25.6,30.03,NNE,26,9.2,9.2,51,0.00,CLR,CLR,0.00,WeatherDisplay:10.37,2013-04-01 00:07:00,
2013-03-31 19:12:00,42.4,25.1,30.03,NNE,18,10.4,10.4,50,0.00,CLR,CLR,0.00,WeatherDisplay:10.37,2013-04-01 00:12:00,
2013-03-31 19:17:00,42.2,24.9,30.03,NW,319,6.9,6.9,50,0.00,CLR,CLR,0.00,WeatherDisplay:10.37,2013-04-01 00:17:00,
2013-03-31 19:23:00,42.0,24.7,30.03,NNW,337,11.5,11.5,50,0.00,CLR,CLR,0.00,WeatherDisplay:10.37,2013-04-01 00:23:00,
2013-03-31 19:28:00,41.8,24.5,30.03,North,5,4.6,4.6,50,0.00,CLR,CLR,0.00,WeatherDisplay:10.37,2013-04-01 00:28:00,
2013-03-31 19:33:00,41.6,24.3,30.03,NNW,327,5.8,5.8,50,0.00,CLR,CLR,0.00,WeatherDisplay:10.37,2013-04-01 00:33:00,
2013-03-31 19:38:00,41.4,23.6,30.03,NNE,17,10.4,10.4,49,0.00,CLR,CLR,0.00,WeatherDisplay:10.37,2013-04-01 00:38:00,
2013-03-31 19:44:00,41.3,24.0,30.04,North,355,4.6,4.6,50,0.00,CLR,CLR,0.00,WeatherDisplay:10.37,2013-04-01 00:44:00,
2013-03-31 19:49:00,41.2,23.9,30.03,West,279,4.6,4.6,50,0.00,CLR,CLR,0.00,WeatherDisplay:10.37,2013-04-01 00:49:00,
2013-03-31 19:54:00,41.1,23.9,30.04,NW,304,4.6,4.6,50,0.00,CLR,CLR,0.00,WeatherDisplay:10.37,2013-04-01 00:54:00,
2013-03-31 19:59:00,41.1,23.9,30.04,North,11,5.8,5.8,50,0.00,CLR,CLR,0.00,WeatherDisplay:10.37,2013-04-01 00:59:00,
2013-03-31 20:04:00,41.0,23.3,30.04,NNW,333,11.5,11.5,49,0.00,CLR,CLR,0.00,WeatherDisplay:10.37,2013-04-01 01:04:00,
2013-03-31 20:10:00,40.9,22.7,30.05,North,350,5.8,5.8,48,0.00,CLR,CLR,0.00,WeatherDisplay:10.37,2013-04-01 01:10:00,
2013-03-31 20:15:00,40.7,22.5,30.05,NNW,333,4.6,4.6,48,0.00,CLR,CLR,0.00,WeatherDisplay:10.37,2013-04-01 01:15:00,
2013-03-31 20:20:00,40.6,22.9,30.06,NNE,17,3.5,3.5,49,0.00,CLR,CLR,0.00,WeatherDisplay:10.37,2013-04-01 01:20:00,
2013-03-31 20:25:00,40.6,22.9,30.06,WNW,286,10.4,10.4,49,0.00,CLR,CLR,0.00,WeatherDisplay:10.37,2013-04-01 01:25:00,
2013-03-31 20:30:00,40.5,22.8,30.06,North,355,9.2,9.2,49,0.00,CLR,CLR,0.00,WeatherDisplay:10.37,2013-04-01 01:30:00,
2013-03-31 20:35:00,40.4,23.2,30.07,NW,321,5.8,5.8,50,0.00,CLR,CLR,0.00,WeatherDisplay:10.37,2013-04-01 01:35:00,
2013-03-31 20:41:00,39.9,24.6,30.07,NW,314,6.9,6.9,54,0.00,CLR,CLR,0.00,WeatherDisplay:10.37,2013-04-01 01:41:00,
2013-03-31 20:46:00,39.1,26.0,30.08,NW,310,8.1,8.1,59,0.00,CLR,CLR,0.00,WeatherDisplay:10.37,2013-04-01 01:46:00,
2013-03-31 20:51:00,38.0,26.1,30.09,NW,317,9.2,9.2,62,0.00,CLR,CLR,0.00,WeatherDisplay:10.37,2013-04-01 01:51:00,
2013-03-31 20:56:00,37.7,26.2,30.09,NW,325,14.0,14.0,63,0.00,CLR,CLR,0.00,WeatherDisplay:10.37,2013-04-01 01:56:00,
2013-03-31 21:02:00,37.1,26.4,30.09,WNW,293,6.9,6.9,65,0.00,CLR,CLR,0.00,WeatherDisplay:10.37,2013-04-01 02:02:00,
2013-03-31 21:07:00,36.7,26.4,30.09,NNW,334,9.2,9.2,66,0.00,CLR,CLR,0.00,WeatherDisplay:10.37,2013-04-01 02:07:00,
2013-03-31 21:12:00,36.6,26.3,30.09,NW,317,11.5,11.5,66,0.00,CLR,CLR,0.00,WeatherDisplay:10.37,2013-04-01 02:12:00,
2013-03-31 21:18:00,36.4,26.1,30.10,NW,323,15.0,15.0,66,0.00,CLR,CLR,0.00,WeatherDisplay:10.37,2013-04-01 02:18:00,
2013-03-31 21:23:00,36.2,25.6,30.10,NW,322,12.7,12.7,65,0.00,CLR,CLR,0.00,WeatherDisplay:10.37,2013-04-01 02:23:00,
2013-03-31 21:28:00,36.1,25.1,30.10,WNW,284,11.5,11.5,64,0.00,CLR,CLR,0.00,WeatherDisplay:10.37,2013-04-01 02:28:00,
2013-03-31 21:33:00,36.1,25.1,30.10,NW,317,10.4,10.4,64,0.00,CLR,CLR,0.00,WeatherDisplay:10.37,2013-04-01 02:33:00,
2013-03-31 21:38:00,36.0,23.8,30.10,NW,323,11.5,11.5,61,0.00,CLR,CLR,0.00,WeatherDisplay:10.37,2013-04-01 02:38:00,
2013-03-31 21:44:00,36.0,23.8,30.10,NNW,335,3.5,3.5,61,0.00,CLR,CLR,0.00,WeatherDisplay:10.37,2013-04-01 02:44:00,
2013-03-31 21:49:00,36.0,23.8,30.11,West,279,8.1,8.1,61,0.00,CLR,CLR,0.00,WeatherDisplay:10.37,2013-04-01 02:49:00,
2013-03-31 21:54:00,36.0,23.4,30.11,WNW,295,4.6,4.6,60,0.00,CLR,CLR,0.00,WeatherDisplay:10.37,2013-04-01 02:54:00,
2013-03-31 21:59:00,36.1,23.1,30.11,WNW,294,11.5,11.5,59,0.00,CLR,CLR,0.00,WeatherDisplay:10.37,2013-04-01 02:59:00,
2013-03-31 22:04:00,36.1,21.5,30.11,NNW,344,6.9,6.9,55,0.00,CLR,CLR,0.00,WeatherDisplay:10.37,2013-04-01 03:04:00,
2013-03-31 22:09:00,36.3,19.4,30.12,North,5,6.9,6.9,50,0.00,CLR,CLR,0.00,WeatherDisplay:10.37,2013-04-01 03:09:00,
2013-03-31 22:14:00,36.3,17.5,30.11,NW,321,9.2,9.2,46,0.00,CLR,CLR,0.00,WeatherDisplay:10.37,2013-04-01 03:14:00,
2013-03-31 22:19:00,36.3,17.5,30.12,WNW,296,10.4,10.4,46,0.00,CLR,CLR,0.00,WeatherDisplay:10.37,2013-04-01 03:19:00,
2013-03-31 22:25:00,36.2,17.4,30.12,NW,313,6.9,6.9,46,0.00,CLR,CLR,0.00,WeatherDisplay:10.37,2013-04-01 03:25:00,
2013-03-31 22:30:00,36.1,16.8,30.12,NW,315,11.5,11.5,45,0.00,CLR,CLR,0.00,WeatherDisplay:10.37,2013-04-01 03:30:00,
2013-03-31 22:35:00,35.8,17.5,30.12,WNW,291,11.5,11.5,47,0.00,CLR,CLR,0.00,WeatherDisplay:10.37,2013-04-01 03:35:00,
2013-03-31 22:40:00,35.6,17.8,30.12,NW,309,12.7,12.7,48,0.00,CLR,CLR,0.00,WeatherDisplay:10.37,2013-04-01 03:40:00,
2013-03-31 22:45:00,35.5,17.7,30.12,NW,309,10.4,10.4,48,0.00,CLR,CLR,0.00,WeatherDisplay:10.37,2013-04-01 03:45:00,
2013-03-31 22:51:00,35.4,18.1,30.13,NW,325,8.1,8.1,49,0.00,CLR,CLR,0.00,WeatherDisplay:10.37,2013-04-01 03:51:00,
2013-03-31 22:56:00,35.1,18.8,30.13,WNW,301,11.5,11.5,51,0.00,CLR,CLR,0.00,WeatherDisplay:10.37,2013-04-01 03:56:00,
2013-03-31 23:00:00,34.9,18.6,30.13,NNW,338,12.7,12.7,51,0.00,CLR,CLR,0.00,WeatherDisplay:10.37,2013-04-01 04:00:00,
2013-03-31 23:01:00,34.8,18.5,30.13,NNW,344,11.5,11.5,51,0.00,CLR,CLR,0.00,WeatherDisplay:10.37,2013-04-01 04:01:00,
2013-03-31 23:06:00,34.7,17.5,30.12,WNW,289,11.5,11.5,49,0.00,CLR,CLR,0.00,WeatherDisplay:10.37,2013-04-01 04:06:00,
2013-03-31 23:11:00,34.7,18.4,30.13,West,279,5.8,5.8,51,0.00,CLR,CLR,0.00,WeatherDisplay:10.37,2013-04-01 04:11:00,
2013-03-31 23:16:00,34.7,18.9,30.12,NW,315,15.0,15.0,52,0.00,CLR,CLR,0.00,WeatherDisplay:10.37,2013-04-01 04:16:00,
2013-03-31 23:21:00,34.7,18.9,30.13,NW,309,4.6,4.6,52,0.00,CLR,CLR,0.00,WeatherDisplay:10.37,2013-04-01 04:21:00,
2013-03-31 23:26:00,34.6,18.8,30.13,NW,319,6.9,6.9,52,0.00,CLR,CLR,0.00,WeatherDisplay:10.37,2013-04-01 04:26:00,
2013-03-31 23:31:00,34.4,19.0,30.13,WNW,299,8.1,8.1,53,0.00,CLR,CLR,0.00,WeatherDisplay:10.37,2013-04-01 04:31:00,
2013-03-31 23:36:00,34.4,19.0,30.13,West,281,5.8,5.8,53,0.00,CLR,CLR,0.00,WeatherDisplay:10.37,2013-04-01 04:36:00,
2013-03-31 23:42:00,34.4,18.6,30.13,NW,313,4.6,4.6,52,0.00,CLR,CLR,0.00,WeatherDisplay:10.37,2013-04-01 04:42:00,
2013-03-31 23:47:00,34.2,18.8,30.14,NNW,329,9.2,9.2,53,0.00,CLR,CLR,0.00,WeatherDisplay:10.37,2013-04-01 04:47:00,
2013-03-31 23:52:00,34.0,18.6,30.14,North,5,4.6,4.6,53,0.00,CLR,CLR,0.00,WeatherDisplay:10.37,2013-04-01 04:52:00,
2013-03-31 23:57:00,33.8,19.3,30.14,NW,323,6.9,6.9,55,0.00,CLR,CLR,0.00,WeatherDisplay:10.37,2013-04-01 04:57:00,